Luz De Mar — ECIJ — position and weather

sailwx.info

Track history (hours):
 
Tides and Currents Weather Stations Pressure Air Temp Water Temp Dewpoint Dewpoint Depression Visibility Wind Speed Wind Dir Waves Ship Positions

Luz De Mar

Last reported at 2015-Jul-30 11:32 UTC. Time now 2015-Jul-30 12:09 UTC.
Position N 28°09' W 015°25'.

Length 56 m; draft 6.5 m.

Type: SAR. MMSI: 224311000.

Date/timePositionNaut miles runAvg speedWind from/ knotsBaromVisibWave heightAir tempDewpointWater temp
2015-Jul-30 11:32N 28°09' W 015°25'0 0.0
2015-Jul-30 10:32N 28°09' W 015°25'0 0.0
2015-Jul-30 09:32N 28°09' W 015°25'0 0.0
2015-Jul-30 08:32N 28°09' W 015°25'0 0.0
2015-Jul-30 07:32N 28°09' W 015°25'0 0.0
2015-Jul-30 06:32N 28°09' W 015°25'0 0.0
2015-Jul-30 05:32N 28°09' W 015°25'6 5.9
2015-Jul-30 04:33N 28°03' W 015°22'4 3.7
2015-Jul-30 03:33N 27°60' W 015°21'9 9.1
2015-Jul-30 02:33N 28°08' W 015°25'0 0.3
2015-Jul-30 01:22N 28°09' W 015°25'0 0.0
2015-Jul-30 00:25N 28°09' W 015°25'0 0.0
2015-Jul-29 23:25N 28°09' W 015°25'0 0.0
2015-Jul-29 22:33N 28°09' W 015°25'1 0.7
2015-Jul-29 21:34N 28°09' W 015°24'  
2015-Jul-26 08:33N 27°29' W 015°32'22 0.5
2015-Jul-24 08:33N 27°49' W 015°21'1111.3
2015-Jul-24 07:33N 28°01' W 015°21'9 9.1
2015-Jul-24 06:33N 28°09' W 015°25'0 0.0
2015-Jul-24 05:31N 28°09' W 015°25'0 0.0
2015-Jul-24 04:31N 28°09' W 015°25'0 0.0
2015-Jul-24 03:22N 28°09' W 015°25'0 0.0
2015-Jul-24 02:25N 28°09' W 015°25'0 0.0
2015-Jul-24 01:25N 28°09' W 015°25'0 0.0
2015-Jul-24 00:25N 28°09' W 015°25'0 0.0
2015-Jul-23 23:28N 28°09' W 015°25'0 0.0
2015-Jul-23 22:28N 28°09' W 015°25'0 0.0
2015-Jul-23 21:31N 28°09' W 015°25'0 0.0
2015-Jul-23 20:31N 28°09' W 015°25'0 0.0
2015-Jul-23 19:31N 28°09' W 015°25'0 0.0
2015-Jul-23 18:31N 28°09' W 015°25'0 0.0
2015-Jul-23 17:31N 28°09' W 015°25'0 0.0
2015-Jul-23 16:31N 28°09' W 015°25'0 0.0
2015-Jul-23 15:31N 28°09' W 015°25'0 0.0
2015-Jul-23 14:31N 28°09' W 015°25'0 0.0
2015-Jul-23 13:31N 28°09' W 015°25'0 0.0
2015-Jul-23 12:22N 28°09' W 015°25'0 0.0
2015-Jul-23 11:25N 28°09' W 015°25'0 0.0
2015-Jul-23 10:25N 28°09' W 015°25'0 0.0
2015-Jul-23 09:25N 28°09' W 015°25'0 0.0
2015-Jul-23 08:28N 28°09' W 015°25'0 0.0
2015-Jul-23 07:28N 28°09' W 015°25'0 0.0
2015-Jul-23 06:28N 28°09' W 015°25'0 0.0
2015-Jul-23 05:31N 28°09' W 015°25'0 0.0
2015-Jul-23 04:31N 28°09' W 015°25'0 0.0
2015-Jul-23 03:31N 28°09' W 015°25'0 0.0
2015-Jul-23 02:31N 28°09' W 015°25'0 0.0
2015-Jul-23 01:31N 28°09' W 015°25'0 0.0
2015-Jul-23 00:31N 28°09' W 015°25'0 0.0
2015-Jul-22 23:31N 28°09' W 015°25'0 0.0
2015-Jul-22 22:31N 28°09' W 015°25'0 0.0
2015-Jul-22 21:22N 28°09' W 015°25'0 0.0
2015-Jul-22 20:25N 28°09' W 015°25'0 0.0
2015-Jul-22 19:25N 28°09' W 015°25'0 0.0
2015-Jul-22 18:25N 28°09' W 015°25'0 0.0
2015-Jul-22 17:28N 28°09' W 015°25'0 0.0
2015-Jul-22 16:25N 28°09' W 015°25'0 0.0
2015-Jul-22 15:31N 28°09' W 015°25'0 0.0
2015-Jul-22 14:31N 28°09' W 015°25'0 0.0
2015-Jul-22 13:31N 28°09' W 015°25'0 0.0
2015-Jul-22 12:31N 28°09' W 015°25'0 0.0
2015-Jul-22 11:31N 28°09' W 015°25'0 0.0
2015-Jul-22 10:31N 28°09' W 015°25'0 0.0
2015-Jul-22 09:31N 28°09' W 015°25'0 0.0
2015-Jul-22 08:31N 28°09' W 015°25'0 0.0
2015-Jul-22 07:22N 28°09' W 015°25'0 0.0
2015-Jul-22 06:22N 28°09' W 015°25'0 0.0
2015-Jul-22 05:25N 28°09' W 015°25'0 0.0
2015-Jul-22 04:25N 28°09' W 015°25'0 0.0
2015-Jul-22 03:25N 28°09' W 015°25'0 0.0
2015-Jul-22 02:28N 28°09' W 015°25'0 0.0
2015-Jul-22 01:28N 28°09' W 015°25'0 0.0
2015-Jul-22 00:28N 28°09' W 015°25'0 0.0
2015-Jul-21 23:28N 28°09' W 015°25'0 0.0
2015-Jul-21 22:31N 28°09' W 015°25'0 0.0
2015-Jul-21 21:31N 28°09' W 015°25'2 1.7
2015-Jul-21 20:33N 28°07' W 015°25'1010.3
2015-Jul-21 19:33N 27°58' W 015°20'  
Track history (hours):
 
Tides and Currents Weather Stations Pressure Air Temp Water Temp Dewpoint Dewpoint Depression Visibility Wind Speed Wind Dir Waves Ship Positions

Luz De Mar

Last reported at 2015-Jul-30 11:32 UTC. Time now 2015-Jul-30 12:09 UTC.
Position N 28°09' W 015°25'.

Length 56 m; draft 6.5 m.

Type: SAR. MMSI: 224311000.

Date/timePositionNaut miles runAvg speedWind from/ knotsBaromVisibWave heightAir tempDewpointWater temp
2015-Jul-30 11:32N 28°09' W 015°25'0 0.0
2015-Jul-30 10:32N 28°09' W 015°25'0 0.0
2015-Jul-30 09:32N 28°09' W 015°25'0 0.0
2015-Jul-30 08:32N 28°09' W 015°25'0 0.0
2015-Jul-30 07:32N 28°09' W 015°25'0 0.0
2015-Jul-30 06:32N 28°09' W 015°25'0 0.0
2015-Jul-30 05:32N 28°09' W 015°25'6 5.9
2015-Jul-30 04:33N 28°03' W 015°22'4 3.7
2015-Jul-30 03:33N 27°60' W 015°21'9 9.1
2015-Jul-30 02:33N 28°08' W 015°25'0 0.3
2015-Jul-30 01:22N 28°09' W 015°25'0 0.0
2015-Jul-30 00:25N 28°09' W 015°25'0 0.0
2015-Jul-29 23:25N 28°09' W 015°25'0 0.0
2015-Jul-29 22:33N 28°09' W 015°25'1 0.7
2015-Jul-29 21:34N 28°09' W 015°24'  
2015-Jul-26 08:33N 27°29' W 015°32'22 0.5
2015-Jul-24 08:33N 27°49' W 015°21'1111.3
2015-Jul-24 07:33N 28°01' W 015°21'9 9.1
2015-Jul-24 06:33N 28°09' W 015°25'0 0.0
2015-Jul-24 05:31N 28°09' W 015°25'0 0.0
2015-Jul-24 04:31N 28°09' W 015°25'0 0.0
2015-Jul-24 03:22N 28°09' W 015°25'0 0.0
2015-Jul-24 02:25N 28°09' W 015°25'0 0.0
2015-Jul-24 01:25N 28°09' W 015°25'0 0.0
2015-Jul-24 00:25N 28°09' W 015°25'0 0.0
2015-Jul-23 23:28N 28°09' W 015°25'0 0.0
2015-Jul-23 22:28N 28°09' W 015°25'0 0.0
2015-Jul-23 21:31N 28°09' W 015°25'0 0.0
2015-Jul-23 20:31N 28°09' W 015°25'0 0.0
2015-Jul-23 19:31N 28°09' W 015°25'0 0.0
2015-Jul-23 18:31N 28°09' W 015°25'0 0.0
2015-Jul-23 17:31N 28°09' W 015°25'0 0.0
2015-Jul-23 16:31N 28°09' W 015°25'0 0.0
2015-Jul-23 15:31N 28°09' W 015°25'0 0.0
2015-Jul-23 14:31N 28°09' W 015°25'0 0.0
2015-Jul-23 13:31N 28°09' W 015°25'0 0.0
2015-Jul-23 12:22N 28°09' W 015°25'0 0.0
2015-Jul-23 11:25N 28°09' W 015°25'0 0.0
2015-Jul-23 10:25N 28°09' W 015°25'0 0.0
2015-Jul-23 09:25N 28°09' W 015°25'0 0.0
2015-Jul-23 08:28N 28°09' W 015°25'0 0.0
2015-Jul-23 07:28N 28°09' W 015°25'0 0.0
2015-Jul-23 06:28N 28°09' W 015°25'0 0.0
2015-Jul-23 05:31N 28°09' W 015°25'0 0.0
2015-Jul-23 04:31N 28°09' W 015°25'0 0.0
2015-Jul-23 03:31N 28°09' W 015°25'0 0.0
2015-Jul-23 02:31N 28°09' W 015°25'0 0.0
2015-Jul-23 01:31N 28°09' W 015°25'0 0.0
2015-Jul-23 00:31N 28°09' W 015°25'0 0.0
2015-Jul-22 23:31N 28°09' W 015°25'0 0.0
2015-Jul-22 22:31N 28°09' W 015°25'0 0.0
2015-Jul-22 21:22N 28°09' W 015°25'0 0.0
2015-Jul-22 20:25N 28°09' W 015°25'0 0.0
2015-Jul-22 19:25N 28°09' W 015°25'0 0.0
2015-Jul-22 18:25N 28°09' W 015°25'0 0.0
2015-Jul-22 17:28N 28°09' W 015°25'0 0.0
2015-Jul-22 16:25N 28°09' W 015°25'0 0.0
2015-Jul-22 15:31N 28°09' W 015°25'0 0.0
2015-Jul-22 14:31N 28°09' W 015°25'0 0.0
2015-Jul-22 13:31N 28°09' W 015°25'0 0.0
2015-Jul-22 12:31N 28°09' W 015°25'0 0.0
2015-Jul-22 11:31N 28°09' W 015°25'0 0.0
2015-Jul-22 10:31N 28°09' W 015°25'0 0.0
2015-Jul-22 09:31N 28°09' W 015°25'0 0.0
2015-Jul-22 08:31N 28°09' W 015°25'0 0.0
2015-Jul-22 07:22N 28°09' W 015°25'0 0.0
2015-Jul-22 06:22N 28°09' W 015°25'0 0.0
2015-Jul-22 05:25N 28°09' W 015°25'0 0.0
2015-Jul-22 04:25N 28°09' W 015°25'0 0.0
2015-Jul-22 03:25N 28°09' W 015°25'0 0.0
2015-Jul-22 02:28N 28°09' W 015°25'0 0.0
2015-Jul-22 01:28N 28°09' W 015°25'0 0.0
2015-Jul-22 00:28N 28°09' W 015°25'0 0.0
2015-Jul-21 23:28N 28°09' W 015°25'0 0.0
2015-Jul-21 22:31N 28°09' W 015°25'0 0.0
2015-Jul-21 21:31N 28°09' W 015°25'2 1.7
2015-Jul-21 20:33N 28°07' W 015°25'1010.3
2015-Jul-21 19:33N 27°58' W 015°20'  

Dump ship's entire track history